sensor_id;sensor_type;location;lat;lon;timestamp;P1;durP1;ratioP1;P2;durP2;ratioP2
10847;SDS011;5477;48.806;9.154;2024-01-06T00:01:37;7.20;;;3.83;;
10847;SDS011;5477;48.806;9.154;2024-01-06T00:04:05;8.23;;;4.00;;
10847;SDS011;5477;48.806;9.154;2024-01-06T00:06:33;6.43;;;4.00;;
10847;SDS011;5477;48.806;9.154;2024-01-06T00:09:02;8.40;;;3.90;;
10847;SDS011;5477;48.806;9.154;2024-01-06T00:11:30;6.60;;;3.70;;
10847;SDS011;5477;48.806;9.154;2024-01-06T00:13:58;7.53;;;4.10;;
10847;SDS011;5477;48.806;9.154;2024-01-06T00:16:26;6.57;;;3.87;;
10847;SDS011;5477;48.806;9.154;2024-01-06T00:18:55;8.37;;;3.67;;
10847;SDS011;5477;48.806;9.154;2024-01-06T00:21:23;4.80;;;3.00;;
10847;SDS011;5477;48.806;9.154;2024-01-06T00:23:51;3.50;;;2.50;;
10847;SDS011;5477;48.806;9.154;2024-01-06T00:26:20;5.97;;;2.90;;
10847;SDS011;5477;48.806;9.154;2024-01-06T00:28:48;4.30;;;2.50;;
10847;SDS011;5477;48.806;9.154;2024-01-06T00:31:16;3.43;;;1.90;;
10847;SDS011;5477;48.806;9.154;2024-01-06T00:33:46;2.80;;;2.00;;
10847;SDS011;5477;48.806;9.154;2024-01-06T00:36:14;5.07;;;2.00;;
10847;SDS011;5477;48.806;9.154;2024-01-06T00:38:42;3.90;;;2.17;;
10847;SDS011;5477;48.806;9.154;2024-01-06T00:41:10;4.90;;;2.23;;
10847;SDS011;5477;48.806;9.154;2024-01-06T00:43:39;3.67;;;2.03;;
10847;SDS011;5477;48.806;9.154;2024-01-06T00:46:07;4.70;;;2.13;;
10847;SDS011;5477;48.806;9.154;2024-01-06T00:48:35;5.13;;;2.40;;
10847;SDS011;5477;48.806;9.154;2024-01-06T00:51:03;6.00;;;2.40;;
10847;SDS011;5477;48.806;9.154;2024-01-06T00:53:31;5.13;;;2.17;;
10847;SDS011;5477;48.806;9.154;2024-01-06T00:55:59;4.17;;;2.03;;
10847;SDS011;5477;48.806;9.154;2024-01-06T00:58:27;3.87;;;1.93;;
10847;SDS011;5477;48.806;9.154;2024-01-06T01:00:56;5.43;;;2.00;;
10847;SDS011;5477;48.806;9.154;2024-01-06T01:03:25;5.27;;;1.80;;
10847;SDS011;5477;48.806;9.154;2024-01-06T01:05:53;3.47;;;1.60;;
10847;SDS011;5477;48.806;9.154;2024-01-06T01:08:21;4.03;;;1.70;;
10847;SDS011;5477;48.806;9.154;2024-01-06T01:10:49;4.33;;;1.83;;
10847;SDS011;5477;48.806;9.154;2024-01-06T01:13:17;4.53;;;1.80;;
10847;SDS011;5477;48.806;9.154;2024-01-06T01:15:45;3.60;;;1.97;;
10847;SDS011;5477;48.806;9.154;2024-01-06T01:18:15;2.77;;;1.77;;
10847;SDS011;5477;48.806;9.154;2024-01-06T01:20:43;2.47;;;1.33;;
10847;SDS011;5477;48.806;9.154;2024-01-06T01:23:11;4.57;;;1.60;;
10847;SDS011;5477;48.806;9.154;2024-01-06T01:25:39;2.30;;;1.57;;
10847;SDS011;5477;48.806;9.154;2024-01-06T01:28:07;4.10;;;1.70;;
10847;SDS011;5477;48.806;9.154;2024-01-06T01:30:35;4.77;;;1.53;;
10847;SDS011;5477;48.806;9.154;2024-01-06T01:33:03;2.90;;;1.60;;
10847;SDS011;5477;48.806;9.154;2024-01-06T01:35:33;3.07;;;1.50;;
10847;SDS011;5477;48.806;9.154;2024-01-06T01:38:01;4.90;;;1.60;;
10847;SDS011;5477;48.806;9.154;2024-01-06T01:40:29;5.20;;;1.50;;
10847;SDS011;5477;48.806;9.154;2024-01-06T01:42:57;2.60;;;1.37;;
10847;SDS011;5477;48.806;9.154;2024-01-06T01:45:25;2.43;;;1.50;;
10847;SDS011;5477;48.806;9.154;2024-01-06T01:47:53;3.07;;;2.00;;
10847;SDS011;5477;48.806;9.154;2024-01-06T01:50:22;4.97;;;1.50;;
10847;SDS011;5477;48.806;9.154;2024-01-06T01:52:55;3.47;;;1.40;;
10847;SDS011;5477;48.806;9.154;2024-01-06T01:55:23;2.90;;;1.97;;
10847;SDS011;5477;48.806;9.154;2024-01-06T01:57:51;3.53;;;1.60;;
10847;SDS011;5477;48.806;9.154;2024-01-06T02:00:21;4.10;;;1.57;;
10847;SDS011;5477;48.806;9.154;2024-01-06T02:02:53;4.37;;;1.70;;
10847;SDS011;5477;48.806;9.154;2024-01-06T02:05:21;4.50;;;1.70;;
10847;SDS011;5477;48.806;9.154;2024-01-06T02:07:49;3.37;;;1.47;;
10847;SDS011;5477;48.806;9.154;2024-01-06T02:10:19;3.20;;;1.23;;
10847;SDS011;5477;48.806;9.154;2024-01-06T02:12:47;2.40;;;1.40;;
10847;SDS011;5477;48.806;9.154;2024-01-06T02:15:18;4.17;;;1.87;;
10847;SDS011;5477;48.806;9.154;2024-01-06T02:17:46;3.17;;;1.50;;
10847;SDS011;5477;48.806;9.154;2024-01-06T02:20:14;2.73;;;1.43;;
10847;SDS011;5477;48.806;9.154;2024-01-06T02:22:47;5.67;;;1.80;;
10847;SDS011;5477;48.806;9.154;2024-01-06T02:25:15;4.73;;;1.50;;
10847;SDS011;5477;48.806;9.154;2024-01-06T02:27:45;3.30;;;1.30;;
10847;SDS011;5477;48.806;9.154;2024-01-06T02:30:13;1.80;;;1.20;;
10847;SDS011;5477;48.806;9.154;2024-01-06T02:32:41;3.60;;;1.50;;
10847;SDS011;5477;48.806;9.154;2024-01-06T02:35:09;5.07;;;1.43;;
10847;SDS011;5477;48.806;9.154;2024-01-06T02:37:37;2.80;;;1.40;;
10847;SDS011;5477;48.806;9.154;2024-01-06T02:40:07;2.53;;;1.40;;
10847;SDS011;5477;48.806;9.154;2024-01-06T02:42:36;3.23;;;1.23;;
10847;SDS011;5477;48.806;9.154;2024-01-06T02:45:04;3.67;;;1.30;;
10847;SDS011;5477;48.806;9.154;2024-01-06T02:47:34;3.30;;;1.40;;
10847;SDS011;5477;48.806;9.154;2024-01-06T02:50:02;4.67;;;1.60;;
10847;SDS011;5477;48.806;9.154;2024-01-06T02:52:30;4.77;;;1.60;;
10847;SDS011;5477;48.806;9.154;2024-01-06T02:54:58;2.67;;;1.30;;
10847;SDS011;5477;48.806;9.154;2024-01-06T02:57:29;4.33;;;1.43;;
10847;SDS011;5477;48.806;9.154;2024-01-06T02:59:57;6.77;;;2.20;;
10847;SDS011;5477;48.806;9.154;2024-01-06T03:02:25;5.80;;;1.50;;
10847;SDS011;5477;48.806;9.154;2024-01-06T03:04:53;4.67;;;1.20;;
10847;SDS011;5477;48.806;9.154;2024-01-06T03:07:22;3.97;;;1.33;;
10847;SDS011;5477;48.806;9.154;2024-01-06T03:09:50;4.10;;;1.70;;
10847;SDS011;5477;48.806;9.154;2024-01-06T03:12:18;3.67;;;1.60;;
10847;SDS011;5477;48.806;9.154;2024-01-06T03:14:48;2.97;;;1.50;;
10847;SDS011;5477;48.806;9.154;2024-01-06T03:17:17;4.33;;;1.50;;
10847;SDS011;5477;48.806;9.154;2024-01-06T03:19:45;3.60;;;1.57;;
10847;SDS011;5477;48.806;9.154;2024-01-06T03:22:13;5.00;;;1.40;;
10847;SDS011;5477;48.806;9.154;2024-01-06T03:24:41;4.23;;;1.80;;
10847;SDS011;5477;48.806;9.154;2024-01-06T03:27:09;3.93;;;1.80;;
10847;SDS011;5477;48.806;9.154;2024-01-06T03:29:37;5.37;;;1.63;;
10847;SDS011;5477;48.806;9.154;2024-01-06T03:32:07;6.33;;;2.30;;
10847;SDS011;5477;48.806;9.154;2024-01-06T03:34:35;3.47;;;1.30;;
10847;SDS011;5477;48.806;9.154;2024-01-06T03:37:03;3.37;;;1.40;;
10847;SDS011;5477;48.806;9.154;2024-01-06T03:39:31;5.60;;;1.80;;
10847;SDS011;5477;48.806;9.154;2024-01-06T03:41:59;3.47;;;1.43;;
10847;SDS011;5477;48.806;9.154;2024-01-06T03:44:27;2.27;;;1.20;;
10847;SDS011;5477;48.806;9.154;2024-01-06T03:46:57;4.83;;;1.60;;
10847;SDS011;5477;48.806;9.154;2024-01-06T03:49:26;5.40;;;1.77;;
10847;SDS011;5477;48.806;9.154;2024-01-06T03:51:54;3.83;;;1.50;;
10847;SDS011;5477;48.806;9.154;2024-01-06T03:54:23;2.80;;;1.40;;
10847;SDS011;5477;48.806;9.154;2024-01-06T03:56:51;4.83;;;1.23;;
10847;SDS011;5477;48.806;9.154;2024-01-06T03:59:18;4.37;;;1.80;;
10847;SDS011;5477;48.806;9.154;2024-01-06T04:01:46;5.97;;;1.60;;
10847;SDS011;5477;48.806;9.154;2024-01-06T04:04:14;3.30;;;1.50;;
10847;SDS011;5477;48.806;9.154;2024-01-06T04:06:44;6.60;;;1.57;;
10847;SDS011;5477;48.806;9.154;2024-01-06T04:09:12;4.17;;;1.40;;
10847;SDS011;5477;48.806;9.154;2024-01-06T04:11:43;3.97;;;1.60;;
10847;SDS011;5477;48.806;9.154;2024-01-06T04:14:11;3.97;;;1.47;;
10847;SDS011;5477;48.806;9.154;2024-01-06T04:16:39;4.60;;;1.40;;
10847;SDS011;5477;48.806;9.154;2024-01-06T04:19:07;3.63;;;1.40;;
10847;SDS011;5477;48.806;9.154;2024-01-06T04:21:37;3.10;;;1.40;;
10847;SDS011;5477;48.806;9.154;2024-01-06T04:24:07;5.50;;;1.70;;
10847;SDS011;5477;48.806;9.154;2024-01-06T04:26:35;2.50;;;1.67;;
10847;SDS011;5477;48.806;9.154;2024-01-06T04:29:03;4.03;;;1.40;;
10847;SDS011;5477;48.806;9.154;2024-01-06T04:31:31;3.77;;;1.40;;
10847;SDS011;5477;48.806;9.154;2024-01-06T04:33:59;5.03;;;1.60;;
10847;SDS011;5477;48.806;9.154;2024-01-06T04:36:29;4.70;;;1.57;;
10847;SDS011;5477;48.806;9.154;2024-01-06T04:38:57;3.47;;;1.77;;
10847;SDS011;5477;48.806;9.154;2024-01-06T04:41:27;5.13;;;1.70;;
10847;SDS011;5477;48.806;9.154;2024-01-06T04:43:55;2.60;;;1.43;;
10847;SDS011;5477;48.806;9.154;2024-01-06T04:46:23;2.93;;;1.47;;
10847;SDS011;5477;48.806;9.154;2024-01-06T04:48:51;4.00;;;1.70;;
10847;SDS011;5477;48.806;9.154;2024-01-06T04:51:19;3.40;;;1.20;;
10847;SDS011;5477;48.806;9.154;2024-01-06T04:53:47;4.33;;;1.80;;
10847;SDS011;5477;48.806;9.154;2024-01-06T04:56:15;4.40;;;1.30;;
10847;SDS011;5477;48.806;9.154;2024-01-06T04:58:44;3.90;;;1.20;;
10847;SDS011;5477;48.806;9.154;2024-01-06T05:01:13;3.60;;;1.23;;
10847;SDS011;5477;48.806;9.154;2024-01-06T05:03:41;4.13;;;1.40;;
10847;SDS011;5477;48.806;9.154;2024-01-06T05:06:09;2.53;;;1.50;;
10847;SDS011;5477;48.806;9.154;2024-01-06T05:08:37;5.97;;;1.60;;
10847;SDS011;5477;48.806;9.154;2024-01-06T05:11:11;2.50;;;1.30;;
10847;SDS011;5477;48.806;9.154;2024-01-06T05:13:39;5.00;;;1.60;;
10847;SDS011;5477;48.806;9.154;2024-01-06T05:16:09;3.53;;;1.50;;
10847;SDS011;5477;48.806;9.154;2024-01-06T05:18:37;2.10;;;1.20;;
10847;SDS011;5477;48.806;9.154;2024-01-06T05:21:05;4.37;;;1.67;;
10847;SDS011;5477;48.806;9.154;2024-01-06T05:23:33;3.47;;;1.50;;
10847;SDS011;5477;48.806;9.154;2024-01-06T05:26:01;2.97;;;1.57;;
10847;SDS011;5477;48.806;9.154;2024-01-06T05:28:29;2.00;;;1.40;;
10847;SDS011;5477;48.806;9.154;2024-01-06T05:30:58;4.13;;;1.57;;
10847;SDS011;5477;48.806;9.154;2024-01-06T05:33:27;2.50;;;1.50;;
10847;SDS011;5477;48.806;9.154;2024-01-06T05:35:55;6.00;;;1.43;;
10847;SDS011;5477;48.806;9.154;2024-01-06T05:38:23;6.40;;;1.83;;
10847;SDS011;5477;48.806;9.154;2024-01-06T05:40:51;2.07;;;1.50;;
10847;SDS011;5477;48.806;9.154;2024-01-06T05:43:19;2.97;;;1.53;;
10847;SDS011;5477;48.806;9.154;2024-01-06T05:45:47;2.37;;;1.40;;
10847;SDS011;5477;48.806;9.154;2024-01-06T05:48:15;2.23;;;1.40;;
10847;SDS011;5477;48.806;9.154;2024-01-06T05:50:45;5.40;;;1.60;;
10847;SDS011;5477;48.806;9.154;2024-01-06T05:53:13;2.20;;;1.50;;
10847;SDS011;5477;48.806;9.154;2024-01-06T05:55:44;4.13;;;1.63;;
10847;SDS011;5477;48.806;9.154;2024-01-06T05:58:12;3.40;;;1.37;;
10847;SDS011;5477;48.806;9.154;2024-01-06T06:00:40;2.57;;;1.33;;
10847;SDS011;5477;48.806;9.154;2024-01-06T06:03:08;3.63;;;1.60;;
10847;SDS011;5477;48.806;9.154;2024-01-06T06:05:36;2.33;;;1.40;;
10847;SDS011;5477;48.806;9.154;2024-01-06T06:08:06;5.17;;;1.77;;
10847;SDS011;5477;48.806;9.154;2024-01-06T06:10:34;3.13;;;1.60;;
10847;SDS011;5477;48.806;9.154;2024-01-06T06:13:18;5.03;;;1.60;;
10847;SDS011;5477;48.806;9.154;2024-01-06T06:15:46;3.97;;;1.60;;
10847;SDS011;5477;48.806;9.154;2024-01-06T06:18:14;2.53;;;1.50;;
10847;SDS011;5477;48.806;9.154;2024-01-06T06:20:42;3.13;;;1.60;;
10847;SDS011;5477;48.806;9.154;2024-01-06T06:23:12;3.90;;;1.70;;
10847;SDS011;5477;48.806;9.154;2024-01-06T06:25:40;3.83;;;1.83;;
10847;SDS011;5477;48.806;9.154;2024-01-06T06:28:09;2.57;;;1.70;;
10847;SDS011;5477;48.806;9.154;2024-01-06T06:30:37;3.77;;;1.60;;
10847;SDS011;5477;48.806;9.154;2024-01-06T06:33:05;2.33;;;1.30;;
10847;SDS011;5477;48.806;9.154;2024-01-06T06:35:34;3.90;;;1.23;;
10847;SDS011;5477;48.806;9.154;2024-01-06T06:38:03;3.03;;;1.33;;
10847;SDS011;5477;48.806;9.154;2024-01-06T06:40:32;4.17;;;1.40;;
10847;SDS011;5477;48.806;9.154;2024-01-06T06:43:00;4.10;;;1.60;;
10847;SDS011;5477;48.806;9.154;2024-01-06T06:45:28;5.53;;;1.53;;
10847;SDS011;5477;48.806;9.154;2024-01-06T06:47:56;3.90;;;1.20;;
10847;SDS011;5477;48.806;9.154;2024-01-06T06:50:24;3.07;;;1.57;;
10847;SDS011;5477;48.806;9.154;2024-01-06T06:52:52;1.90;;;1.30;;
10847;SDS011;5477;48.806;9.154;2024-01-06T06:55:20;3.07;;;1.40;;
10847;SDS011;5477;48.806;9.154;2024-01-06T06:57:50;2.47;;;1.50;;
10847;SDS011;5477;48.806;9.154;2024-01-06T07:00:18;4.40;;;1.57;;
10847;SDS011;5477;48.806;9.154;2024-01-06T07:02:47;4.23;;;1.57;;
10847;SDS011;5477;48.806;9.154;2024-01-06T07:05:15;4.80;;;1.80;;
10847;SDS011;5477;48.806;9.154;2024-01-06T07:07:44;2.73;;;1.30;;
10847;SDS011;5477;48.806;9.154;2024-01-06T07:10:13;4.13;;;1.50;;
10847;SDS011;5477;48.806;9.154;2024-01-06T07:12:41;3.57;;;1.30;;
10847;SDS011;5477;48.806;9.154;2024-01-06T07:15:10;2.17;;;1.30;;
10847;SDS011;5477;48.806;9.154;2024-01-06T07:17:38;2.50;;;1.23;;
10847;SDS011;5477;48.806;9.154;2024-01-06T07:20:07;2.67;;;1.33;;
10847;SDS011;5477;48.806;9.154;2024-01-06T07:22:35;3.13;;;1.30;;
10847;SDS011;5477;48.806;9.154;2024-01-06T07:25:04;2.10;;;1.30;;
10847;SDS011;5477;48.806;9.154;2024-01-06T07:27:33;2.93;;;1.33;;
10847;SDS011;5477;48.806;9.154;2024-01-06T07:30:02;1.87;;;1.30;;
10847;SDS011;5477;48.806;9.154;2024-01-06T07:32:31;1.37;;;1.10;;
10847;SDS011;5477;48.806;9.154;2024-01-06T07:35:00;2.40;;;1.20;;
10847;SDS011;5477;48.806;9.154;2024-01-06T07:37:33;2.70;;;1.40;;
10847;SDS011;5477;48.806;9.154;2024-01-06T07:40:01;2.23;;;1.10;;
10847;SDS011;5477;48.806;9.154;2024-01-06T07:42:29;2.27;;;1.03;;
10847;SDS011;5477;48.806;9.154;2024-01-06T07:44:58;1.50;;;1.13;;
10847;SDS011;5477;48.806;9.154;2024-01-06T07:47:26;2.00;;;1.00;;
10847;SDS011;5477;48.806;9.154;2024-01-06T07:49:55;1.60;;;1.00;;
10847;SDS011;5477;48.806;9.154;2024-01-06T07:52:23;2.60;;;1.20;;
10847;SDS011;5477;48.806;9.154;2024-01-06T07:54:51;1.23;;;1.00;;
10847;SDS011;5477;48.806;9.154;2024-01-06T07:57:20;3.00;;;1.30;;
10847;SDS011;5477;48.806;9.154;2024-01-06T07:59:48;2.20;;;1.07;;
10847;SDS011;5477;48.806;9.154;2024-01-06T08:02:16;1.30;;;1.00;;
10847;SDS011;5477;48.806;9.154;2024-01-06T08:04:44;2.70;;;1.20;;
10847;SDS011;5477;48.806;9.154;2024-01-06T08:07:14;5.00;;;1.43;;
10847;SDS011;5477;48.806;9.154;2024-01-06T08:09:42;1.40;;;1.30;;
10847;SDS011;5477;48.806;9.154;2024-01-06T08:12:10;3.10;;;1.20;;
10847;SDS011;5477;48.806;9.154;2024-01-06T08:14:38;1.47;;;1.30;;
10847;SDS011;5477;48.806;9.154;2024-01-06T08:17:06;3.03;;;1.20;;
10847;SDS011;5477;48.806;9.154;2024-01-06T08:19:34;2.60;;;1.13;;
10847;SDS011;5477;48.806;9.154;2024-01-06T08:22:03;3.37;;;1.23;;
10847;SDS011;5477;48.806;9.154;2024-01-06T08:24:32;1.90;;;1.17;;
10847;SDS011;5477;48.806;9.154;2024-01-06T08:27:00;1.60;;;1.00;;
10847;SDS011;5477;48.806;9.154;2024-01-06T08:29:28;2.07;;;1.20;;
10847;SDS011;5477;48.806;9.154;2024-01-06T08:31:56;1.23;;;1.07;;
10847;SDS011;5477;48.806;9.154;2024-01-06T08:34:24;2.60;;;1.20;;
10847;SDS011;5477;48.806;9.154;2024-01-06T08:36:58;1.33;;;1.03;;
10847;SDS011;5477;48.806;9.154;2024-01-06T08:39:26;2.10;;;0.93;;
10847;SDS011;5477;48.806;9.154;2024-01-06T08:41:55;1.83;;;1.13;;
10847;SDS011;5477;48.806;9.154;2024-01-06T08:44:27;1.77;;;0.90;;
10847;SDS011;5477;48.806;9.154;2024-01-06T08:46:55;2.43;;;1.40;;
10847;SDS011;5477;48.806;9.154;2024-01-06T08:49:23;3.83;;;1.30;;
10847;SDS011;5477;48.806;9.154;2024-01-06T08:51:51;1.33;;;0.93;;
10847;SDS011;5477;48.806;9.154;2024-01-06T08:54:19;2.27;;;1.10;;
10847;SDS011;5477;48.806;9.154;2024-01-06T08:56:50;2.00;;;1.20;;
10847;SDS011;5477;48.806;9.154;2024-01-06T08:59:27;1.50;;;1.20;;
10847;SDS011;5477;48.806;9.154;2024-01-06T09:01:55;1.20;;;1.10;;
10847;SDS011;5477;48.806;9.154;2024-01-06T09:04:23;2.27;;;1.17;;
10847;SDS011;5477;48.806;9.154;2024-01-06T09:06:51;3.47;;;1.20;;
10847;SDS011;5477;48.806;9.154;2024-01-06T09:09:20;3.00;;;1.20;;
10847;SDS011;5477;48.806;9.154;2024-01-06T09:11:49;2.07;;;1.30;;
10847;SDS011;5477;48.806;9.154;2024-01-06T09:14:18;2.07;;;1.30;;
10847;SDS011;5477;48.806;9.154;2024-01-06T09:16:47;1.50;;;1.23;;
10847;SDS011;5477;48.806;9.154;2024-01-06T09:19:15;1.40;;;1.20;;
10847;SDS011;5477;48.806;9.154;2024-01-06T09:21:43;6.73;;;3.77;;
10847;SDS011;5477;48.806;9.154;2024-01-06T09:24:12;2.27;;;1.40;;
10847;SDS011;5477;48.806;9.154;2024-01-06T09:26:40;1.87;;;1.40;;
10847;SDS011;5477;48.806;9.154;2024-01-06T09:29:08;2.30;;;1.40;;
10847;SDS011;5477;48.806;9.154;2024-01-06T09:31:38;2.37;;;1.77;;
10847;SDS011;5477;48.806;9.154;2024-01-06T09:34:10;1.87;;;1.60;;
10847;SDS011;5477;48.806;9.154;2024-01-06T09:36:39;2.50;;;2.00;;
10847;SDS011;5477;48.806;9.154;2024-01-06T09:39:07;3.37;;;1.70;;
10847;SDS011;5477;48.806;9.154;2024-01-06T09:41:35;2.40;;;1.80;;
10847;SDS011;5477;48.806;9.154;2024-01-06T09:44:03;3.03;;;1.70;;
10847;SDS011;5477;48.806;9.154;2024-01-06T09:46:32;2.23;;;1.63;;
10847;SDS011;5477;48.806;9.154;2024-01-06T09:49:02;3.33;;;1.53;;
10847;SDS011;5477;48.806;9.154;2024-01-06T09:51:31;2.53;;;1.90;;
10847;SDS011;5477;48.806;9.154;2024-01-06T09:54:02;1.30;;;1.20;;
10847;SDS011;5477;48.806;9.154;2024-01-06T09:56:34;1.63;;;1.30;;
10847;SDS011;5477;48.806;9.154;2024-01-06T09:59:02;1.43;;;1.10;;
10847;SDS011;5477;48.806;9.154;2024-01-06T10:01:30;2.20;;;1.80;;
10847;SDS011;5477;48.806;9.154;2024-01-06T10:03:58;2.07;;;1.70;;
10847;SDS011;5477;48.806;9.154;2024-01-06T10:06:26;1.90;;;1.50;;
10847;SDS011;5477;48.806;9.154;2024-01-06T10:08:56;2.00;;;1.73;;
10847;SDS011;5477;48.806;9.154;2024-01-06T10:11:24;2.60;;;1.17;;
10847;SDS011;5477;48.806;9.154;2024-01-06T10:13:52;1.97;;;1.43;;
10847;SDS011;5477;48.806;9.154;2024-01-06T10:16:21;3.30;;;2.10;;
10847;SDS011;5477;48.806;9.154;2024-01-06T10:18:49;2.53;;;1.60;;
10847;SDS011;5477;48.806;9.154;2024-01-06T10:21:20;2.47;;;1.60;;
10847;SDS011;5477;48.806;9.154;2024-01-06T10:23:49;1.30;;;1.20;;
10847;SDS011;5477;48.806;9.154;2024-01-06T10:26:19;2.47;;;1.53;;
10847;SDS011;5477;48.806;9.154;2024-01-06T10:28:47;2.30;;;1.70;;
10847;SDS011;5477;48.806;9.154;2024-01-06T10:31:16;2.87;;;1.50;;
10847;SDS011;5477;48.806;9.154;2024-01-06T10:33:44;2.20;;;1.60;;
10847;SDS011;5477;48.806;9.154;2024-01-06T10:36:13;1.70;;;1.50;;
10847;SDS011;5477;48.806;9.154;2024-01-06T10:38:42;2.20;;;1.80;;
10847;SDS011;5477;48.806;9.154;2024-01-06T10:41:12;1.67;;;1.37;;
10847;SDS011;5477;48.806;9.154;2024-01-06T10:43:43;1.50;;;1.40;;
10847;SDS011;5477;48.806;9.154;2024-01-06T10:46:13;2.30;;;1.70;;
10847;SDS011;5477;48.806;9.154;2024-01-06T10:48:42;1.50;;;1.40;;
10847;SDS011;5477;48.806;9.154;2024-01-06T10:51:12;1.40;;;1.30;;
10847;SDS011;5477;48.806;9.154;2024-01-06T10:53:42;1.57;;;1.40;;
10847;SDS011;5477;48.806;9.154;2024-01-06T10:56:10;3.03;;;1.30;;
10847;SDS011;5477;48.806;9.154;2024-01-06T10:58:39;2.60;;;1.83;;
10847;SDS011;5477;48.806;9.154;2024-01-06T11:01:14;2.53;;;1.53;;
10847;SDS011;5477;48.806;9.154;2024-01-06T11:03:47;1.50;;;1.40;;
10847;SDS011;5477;48.806;9.154;2024-01-06T11:06:16;1.23;;;1.13;;
10847;SDS011;5477;48.806;9.154;2024-01-06T11:08:48;1.63;;;1.20;;
10847;SDS011;5477;48.806;9.154;2024-01-06T11:11:20;2.03;;;1.53;;
10847;SDS011;5477;48.806;9.154;2024-01-06T11:13:51;2.20;;;1.73;;
10847;SDS011;5477;48.806;9.154;2024-01-06T11:16:34;1.87;;;1.40;;
10847;SDS011;5477;48.806;9.154;2024-01-06T11:19:03;1.90;;;1.73;;
10847;SDS011;5477;48.806;9.154;2024-01-06T11:22:20;2.73;;;1.87;;
10847;SDS011;5477;48.806;9.154;2024-01-06T11:24:51;2.40;;;2.20;;
10847;SDS011;5477;48.806;9.154;2024-01-06T11:27:20;2.90;;;2.47;;
10847;SDS011;5477;48.806;9.154;2024-01-06T11:29:52;3.23;;;2.30;;
10847;SDS011;5477;48.806;9.154;2024-01-06T11:32:27;2.63;;;2.10;;
10847;SDS011;5477;48.806;9.154;2024-01-06T11:35:04;2.80;;;2.50;;
10847;SDS011;5477;48.806;9.154;2024-01-06T11:37:35;3.37;;;3.07;;
10847;SDS011;5477;48.806;9.154;2024-01-06T11:40:08;2.77;;;2.40;;
10847;SDS011;5477;48.806;9.154;2024-01-06T11:42:40;3.27;;;2.00;;
10847;SDS011;5477;48.806;9.154;2024-01-06T11:45:11;3.63;;;2.33;;
10847;SDS011;5477;48.806;9.154;2024-01-06T11:47:43;2.50;;;2.30;;
10847;SDS011;5477;48.806;9.154;2024-01-06T11:50:15;3.67;;;2.30;;
10847;SDS011;5477;48.806;9.154;2024-01-06T11:52:44;2.83;;;2.50;;
10847;SDS011;5477;48.806;9.154;2024-01-06T11:55:12;2.70;;;2.33;;
10847;SDS011;5477;48.806;9.154;2024-01-06T11:57:41;3.43;;;2.30;;
10847;SDS011;5477;48.806;9.154;2024-01-06T12:00:10;4.03;;;2.40;;
10847;SDS011;5477;48.806;9.154;2024-01-06T12:02:40;3.40;;;2.70;;
10847;SDS011;5477;48.806;9.154;2024-01-06T12:05:12;2.80;;;2.30;;
10847;SDS011;5477;48.806;9.154;2024-01-06T12:07:41;2.67;;;2.47;;
10847;SDS011;5477;48.806;9.154;2024-01-06T12:10:09;4.33;;;2.90;;
10847;SDS011;5477;48.806;9.154;2024-01-06T12:12:40;4.17;;;2.83;;
10847;SDS011;5477;48.806;9.154;2024-01-06T12:15:08;5.10;;;2.90;;
10847;SDS011;5477;48.806;9.154;2024-01-06T12:17:38;3.03;;;2.73;;
10847;SDS011;5477;48.806;9.154;2024-01-06T12:20:08;3.93;;;2.53;;
10847;SDS011;5477;48.806;9.154;2024-01-06T12:22:38;2.93;;;2.40;;
10847;SDS011;5477;48.806;9.154;2024-01-06T12:25:08;2.97;;;2.67;;
10847;SDS011;5477;48.806;9.154;2024-01-06T12:27:41;4.60;;;2.93;;
10847;SDS011;5477;48.806;9.154;2024-01-06T12:30:12;3.90;;;2.77;;
10847;SDS011;5477;48.806;9.154;2024-01-06T12:32:45;2.67;;;2.47;;
10847;SDS011;5477;48.806;9.154;2024-01-06T12:35:16;3.30;;;2.87;;
10847;SDS011;5477;48.806;9.154;2024-01-06T12:37:46;3.70;;;2.57;;
10847;SDS011;5477;48.806;9.154;2024-01-06T12:40:15;4.43;;;2.50;;
10847;SDS011;5477;48.806;9.154;2024-01-06T12:42:46;3.43;;;2.57;;
10847;SDS011;5477;48.806;9.154;2024-01-06T12:45:14;3.87;;;3.20;;
10847;SDS011;5477;48.806;9.154;2024-01-06T12:47:45;3.50;;;2.30;;
10847;SDS011;5477;48.806;9.154;2024-01-06T12:50:13;3.47;;;3.17;;
10847;SDS011;5477;48.806;9.154;2024-01-06T12:52:42;3.00;;;2.67;;
10847;SDS011;5477;48.806;9.154;2024-01-06T12:55:12;3.40;;;2.50;;
10847;SDS011;5477;48.806;9.154;2024-01-06T12:57:41;5.73;;;3.30;;
10847;SDS011;5477;48.806;9.154;2024-01-06T13:00:11;3.73;;;3.03;;
10847;SDS011;5477;48.806;9.154;2024-01-06T13:02:41;3.47;;;3.17;;
10847;SDS011;5477;48.806;9.154;2024-01-06T13:05:10;3.80;;;3.30;;
10847;SDS011;5477;48.806;9.154;2024-01-06T13:07:39;5.57;;;3.27;;
10847;SDS011;5477;48.806;9.154;2024-01-06T13:10:08;3.63;;;3.33;;
10847;SDS011;5477;48.806;9.154;2024-01-06T13:12:36;3.90;;;3.60;;
10847;SDS011;5477;48.806;9.154;2024-01-06T13:15:05;3.97;;;3.57;;
10847;SDS011;5477;48.806;9.154;2024-01-06T13:17:37;4.37;;;3.70;;
10847;SDS011;5477;48.806;9.154;2024-01-06T13:20:06;5.47;;;3.77;;
10847;SDS011;5477;48.806;9.154;2024-01-06T13:22:36;7.30;;;3.90;;
10847;SDS011;5477;48.806;9.154;2024-01-06T13:25:07;4.03;;;3.63;;
10847;SDS011;5477;48.806;9.154;2024-01-06T13:27:36;5.17;;;4.07;;
10847;SDS011;5477;48.806;9.154;2024-01-06T13:30:04;4.93;;;4.10;;
10847;SDS011;5477;48.806;9.154;2024-01-06T13:32:33;6.27;;;4.17;;
10847;SDS011;5477;48.806;9.154;2024-01-06T13:35:02;5.90;;;4.70;;
10847;SDS011;5477;48.806;9.154;2024-01-06T13:37:32;7.20;;;5.47;;
10847;SDS011;5477;48.806;9.154;2024-01-06T13:40:01;6.17;;;5.57;;
10847;SDS011;5477;48.806;9.154;2024-01-06T13:42:33;6.57;;;4.70;;
10847;SDS011;5477;48.806;9.154;2024-01-06T13:45:02;4.87;;;4.20;;
10847;SDS011;5477;48.806;9.154;2024-01-06T13:47:32;6.03;;;3.70;;
10847;SDS011;5477;48.806;9.154;2024-01-06T13:50:00;5.00;;;3.80;;
10847;SDS011;5477;48.806;9.154;2024-01-06T13:52:29;4.83;;;3.97;;
10847;SDS011;5477;48.806;9.154;2024-01-06T13:54:57;5.87;;;4.63;;
10847;SDS011;5477;48.806;9.154;2024-01-06T13:57:27;4.93;;;3.83;;
10847;SDS011;5477;48.806;9.154;2024-01-06T13:59:55;4.87;;;4.37;;
10847;SDS011;5477;48.806;9.154;2024-01-06T14:02:24;7.13;;;4.60;;
10847;SDS011;5477;48.806;9.154;2024-01-06T14:04:53;5.10;;;4.30;;
10847;SDS011;5477;48.806;9.154;2024-01-06T14:07:21;6.87;;;5.57;;
10847;SDS011;5477;48.806;9.154;2024-01-06T14:09:49;11.23;;;8.00;;
10847;SDS011;5477;48.806;9.154;2024-01-06T14:12:17;8.73;;;6.13;;
10847;SDS011;5477;48.806;9.154;2024-01-06T14:14:47;8.53;;;5.80;;
10847;SDS011;5477;48.806;9.154;2024-01-06T14:17:15;5.00;;;4.20;;
10847;SDS011;5477;48.806;9.154;2024-01-06T14:19:44;8.13;;;6.47;;
10847;SDS011;5477;48.806;9.154;2024-01-06T14:22:15;9.70;;;7.80;;
10847;SDS011;5477;48.806;9.154;2024-01-06T14:24:43;7.60;;;6.43;;
10847;SDS011;5477;48.806;9.154;2024-01-06T14:27:11;6.53;;;4.83;;
10847;SDS011;5477;48.806;9.154;2024-01-06T14:29:40;5.90;;;4.90;;
10847;SDS011;5477;48.806;9.154;2024-01-06T14:32:09;6.10;;;5.50;;
10847;SDS011;5477;48.806;9.154;2024-01-06T14:34:37;7.43;;;6.37;;
10847;SDS011;5477;48.806;9.154;2024-01-06T14:37:05;7.70;;;6.60;;
10847;SDS011;5477;48.806;9.154;2024-01-06T14:39:34;6.93;;;6.23;;
10847;SDS011;5477;48.806;9.154;2024-01-06T14:42:04;7.53;;;5.73;;
10847;SDS011;5477;48.806;9.154;2024-01-06T14:44:32;7.87;;;6.30;;
10847;SDS011;5477;48.806;9.154;2024-01-06T14:47:00;6.20;;;5.60;;
10847;SDS011;5477;48.806;9.154;2024-01-06T14:49:29;7.17;;;6.47;;
10847;SDS011;5477;48.806;9.154;2024-01-06T14:51:57;8.97;;;6.20;;
10847;SDS011;5477;48.806;9.154;2024-01-06T14:54:26;7.37;;;5.80;;
10847;SDS011;5477;48.806;9.154;2024-01-06T14:56:57;8.30;;;6.70;;
10847;SDS011;5477;48.806;9.154;2024-01-06T14:59:25;7.30;;;6.43;;
10847;SDS011;5477;48.806;9.154;2024-01-06T15:01:53;6.50;;;5.70;;
10847;SDS011;5477;48.806;9.154;2024-01-06T15:04:21;8.13;;;6.03;;
10847;SDS011;5477;48.806;9.154;2024-01-06T15:06:53;6.93;;;6.23;;
10847;SDS011;5477;48.806;9.154;2024-01-06T15:09:22;7.53;;;6.60;;
10847;SDS011;5477;48.806;9.154;2024-01-06T15:11:51;7.80;;;7.00;;